createdAt,value
2018-06-18T00:05:39.944Z,3.43
2018-06-18T00:11:34.938Z,3.54
2018-06-18T00:17:29.950Z,3.35
2018-06-18T00:23:24.983Z,3.83
2018-06-18T00:29:19.976Z,3.23
2018-06-18T00:35:14.968Z,3.45
2018-06-18T00:41:09.947Z,3.12
2018-06-18T00:47:04.940Z,2.93
2018-06-18T00:52:59.984Z,3.45
2018-06-18T00:58:55.017Z,3.12
2018-06-18T01:04:49.975Z,3.15
2018-06-18T01:10:44.966Z,4.39
2018-06-18T01:16:40.034Z,3.72
2018-06-18T01:22:34.979Z,3.62
2018-06-18T01:28:29.972Z,3.55
2018-06-18T01:34:24.990Z,3.55
2018-06-18T01:40:20.014Z,3.42
2018-06-18T01:46:15.041Z,3.54
2018-06-18T01:52:10.031Z,3.86
2018-06-18T01:58:04.989Z,4.27
2018-06-18T02:03:59.968Z,3.84
2018-06-18T02:09:54.972Z,4.21
2018-06-18T02:15:49.981Z,3.79
2018-06-18T02:21:45.001Z,4.44
2018-06-18T02:27:40.011Z,4.06
2018-06-18T02:33:34.970Z,4.49
2018-06-18T02:39:30.027Z,4.18
2018-06-18T02:45:25.062Z,3.92
2018-06-18T02:51:20.047Z,4.96
2018-06-18T02:57:15.034Z,4.49
2018-06-18T03:03:10.026Z,4.44
2018-06-18T03:09:05.033Z,4.11
2018-06-18T03:15:00.040Z,4.22
2018-06-18T03:20:54.969Z,3.63
2018-06-18T03:26:50.019Z,4.23
2018-06-18T03:32:44.994Z,4.02
2018-06-18T03:38:40.036Z,4.57
2018-06-18T03:44:35.052Z,4.25
2018-06-18T03:50:29.986Z,4.3
2018-06-18T03:56:24.994Z,4.69
2018-06-18T04:02:20.031Z,4.03
2018-06-18T04:08:15.053Z,4.19
2018-06-18T04:14:10.011Z,3.97
2018-06-18T04:20:04.990Z,4.02
2018-06-18T04:26:00.027Z,3.67
2018-06-18T04:31:55.011Z,3.56
2018-06-18T04:37:50.097Z,4.03
2018-06-18T04:43:45.039Z,4.43
2018-06-18T04:49:40.019Z,4.35
2018-06-18T04:55:35.023Z,4.18
2018-06-18T05:01:30.018Z,4.89
2018-06-18T05:07:24.975Z,5.12
2018-06-18T05:13:19.997Z,4.81
2018-06-18T05:19:14.978Z,4.94
2018-06-18T05:25:10.029Z,5.2
2018-06-18T05:31:05.040Z,5.08
2018-06-18T05:37:00.000Z,4.96
2018-06-18T05:42:55.010Z,5.27
2018-06-18T05:48:49.991Z,5.11
2018-06-18T05:54:45.012Z,4.68
2018-06-18T06:00:40.008Z,5.18
2018-06-18T06:06:35.019Z,5.51
2018-06-18T06:12:30.054Z,6.12
2018-06-18T06:18:24.978Z,6.62
2018-06-18T06:24:20.010Z,6.2
2018-06-18T06:30:14.994Z,6.73
2018-06-18T06:36:10.020Z,6.79
2018-06-18T06:42:05.002Z,6.83
2018-06-18T06:48:00.036Z,7.03
2018-06-18T06:53:55.017Z,7.97
2018-06-18T06:59:50.026Z,7.05
2018-06-18T07:05:45.039Z,6.66
2018-06-18T07:11:40.054Z,7.33
2018-06-18T07:17:35.070Z,7.63
2018-06-18T07:23:30.045Z,7.13
2018-06-18T07:29:25.037Z,4.3
2018-06-18T07:35:20.061Z,3.49
2018-06-18T07:41:15.029Z,3.16
2018-06-18T07:47:10.049Z,3.74
2018-06-18T07:53:05.093Z,3.81
2018-06-18T07:59:00.040Z,3.74
2018-06-18T08:04:55.080Z,3.39
2018-06-18T08:10:50.014Z,3.44
2018-06-18T08:16:45.073Z,3.59
2018-06-18T08:22:40.047Z,3.83
2018-06-18T08:28:35.044Z,3.92
2018-06-18T08:34:30.075Z,3.67
2018-06-18T08:40:25.069Z,3.77
2018-06-18T08:46:20.062Z,3.43
2018-06-18T08:52:15.095Z,3.88
2018-06-18T08:58:10.088Z,3.91
2018-06-18T09:04:05.111Z,4
2018-06-18T09:10:00.075Z,3.8
2018-06-18T09:15:55.102Z,3.47
2018-06-18T09:21:50.137Z,4.12
2018-06-18T09:27:45.094Z,3.86
2018-06-18T09:33:40.135Z,3.52
2018-06-18T09:39:35.192Z,3.72
2018-06-18T09:45:30.083Z,4.44
2018-06-18T09:51:25.144Z,4.18
2018-06-18T09:57:20.068Z,4.01
2018-06-18T10:21:00.092Z,4.07
2018-06-18T10:21:00.265Z,4.43
2018-06-18T10:21:00.283Z,4.43
2018-06-18T10:21:00.286Z,4.43
2018-06-18T10:26:55.113Z,5.92
2018-06-18T10:32:50.092Z,4.37
2018-06-18T10:38:45.123Z,4.34
2018-06-18T10:44:40.113Z,4.3
2018-06-18T10:50:35.129Z,4.49
2018-06-18T10:56:30.132Z,3.72
2018-06-18T11:02:25.123Z,4.66
2018-06-18T11:08:20.130Z,4.3
2018-06-18T11:14:15.109Z,4.26
2018-06-18T11:20:10.116Z,3.82
2018-06-18T11:26:05.153Z,4.27
2018-06-18T11:32:00.096Z,4.42
2018-06-18T11:37:55.146Z,3.87
2018-06-18T11:43:50.181Z,4.08
2018-06-18T11:49:45.123Z,4.57
2018-06-18T11:55:40.168Z,4.37
2018-06-18T12:01:35.152Z,3.77
2018-06-18T12:07:30.149Z,3.94
2018-06-18T12:13:25.123Z,4.55
2018-06-18T12:19:20.162Z,3.75
2018-06-18T12:25:15.192Z,3.76
2018-06-18T12:31:10.150Z,4.21
2018-06-18T12:37:05.123Z,3.67
2018-06-18T12:43:00.205Z,3.68
2018-06-18T12:48:55.180Z,4.09
2018-06-18T12:54:50.195Z,3.61
2018-06-18T13:18:30.161Z,3.76
2018-06-18T13:18:30.215Z,4.12
2018-06-18T13:18:30.218Z,4.12
2018-06-18T13:18:30.266Z,4.12
2018-06-18T13:24:25.162Z,4.12
2018-06-18T13:30:20.170Z,3.94
2018-06-18T13:36:15.167Z,3.49
2018-06-18T13:42:10.215Z,3.56
2018-06-18T13:48:05.173Z,4.52
2018-06-18T13:54:00.221Z,3.8
2018-06-18T13:59:55.244Z,3.87
2018-06-18T14:05:50.202Z,3.87
2018-06-18T14:11:45.214Z,4.17
2018-06-18T14:17:40.215Z,4.14
2018-06-18T14:23:35.233Z,3.55
2018-06-18T14:29:30.226Z,3.59
2018-06-18T14:35:25.232Z,3.98
2018-06-18T14:41:20.193Z,3.75
2018-06-18T14:47:15.238Z,3.4
2018-06-18T14:53:10.237Z,3.3
2018-06-18T14:59:05.225Z,3.27
2018-06-18T15:05:00.274Z,3.81
2018-06-18T15:10:55.184Z,3.6
2018-06-18T15:16:50.256Z,3.47
2018-06-18T15:22:45.243Z,3.33
2018-06-18T15:28:40.220Z,3.43
2018-06-18T15:34:35.202Z,3.49
2018-06-18T15:40:30.284Z,3.24
2018-06-18T15:46:25.227Z,3.1
2018-06-18T15:52:20.243Z,3.63
2018-06-18T15:58:15.292Z,3.03
2018-06-18T16:21:55.290Z,3.04
2018-06-18T16:21:55.292Z,3.44
2018-06-18T16:21:55.335Z,3.44
2018-06-18T16:21:55.394Z,3.44
2018-06-18T16:27:50.245Z,3.03
2018-06-18T16:33:45.332Z,3.67
2018-06-18T16:39:40.276Z,3.51
2018-06-18T16:45:35.250Z,3.64
2018-06-18T16:51:30.281Z,3.67
2018-06-18T16:57:25.264Z,3.38
2018-06-18T17:03:20.272Z,3.52
2018-06-18T17:09:15.236Z,3.51
2018-06-18T17:15:10.265Z,3.74
2018-06-18T17:21:05.272Z,3.53
2018-06-18T17:27:00.271Z,3.51
2018-06-18T17:32:55.281Z,2.97
2018-06-18T17:38:50.348Z,3.53
2018-06-18T17:44:45.353Z,3.43
2018-06-18T17:50:40.330Z,3.43
2018-06-18T17:56:35.345Z,3.64
2018-06-18T18:02:30.294Z,3.56
2018-06-18T18:08:25.342Z,3.98
2018-06-18T18:14:20.285Z,4.8
2018-06-18T18:20:15.290Z,5.74
2018-06-18T18:26:10.299Z,4.44
2018-06-18T18:32:05.335Z,4.2
2018-06-18T18:38:00.309Z,4.35
2018-06-18T18:43:55.317Z,4.42
2018-06-18T18:49:50.350Z,4.65
2018-06-18T18:55:45.287Z,3.79
2018-06-18T19:19:25.325Z,3.91
2018-06-18T19:19:25.413Z,4.4
2018-06-18T19:19:25.452Z,4.4
2018-06-18T19:19:25.461Z,4.4
2018-06-18T19:25:20.332Z,4.02
2018-06-18T19:31:15.412Z,3.77
2018-06-18T19:37:10.323Z,3.73
2018-06-18T19:43:05.341Z,4.02
2018-06-18T19:49:00.332Z,4.16
2018-06-18T19:54:55.303Z,4.5
2018-06-18T20:00:50.353Z,4.18
2018-06-18T20:06:45.348Z,4.15
2018-06-18T20:12:40.319Z,4.26
2018-06-18T20:18:35.349Z,4.44
2018-06-18T20:24:30.339Z,4.3
2018-06-18T20:30:25.355Z,3.83
2018-06-18T20:36:20.365Z,4.41
2018-06-18T20:42:15.345Z,4.21
2018-06-18T20:48:10.353Z,4.54
2018-06-18T20:54:05.370Z,4.14
2018-06-18T21:00:00.323Z,4.79
2018-06-18T21:05:55.376Z,4.2
2018-06-18T21:11:50.352Z,3.82
2018-06-18T21:17:45.390Z,4.15
2018-06-18T21:23:40.376Z,4.37
2018-06-18T21:29:35.420Z,4.73
2018-06-18T21:35:30.426Z,4.14
2018-06-18T21:41:25.434Z,4.29
2018-06-18T21:47:20.379Z,4.37
2018-06-18T21:53:15.353Z,3.82
2018-06-18T21:59:10.402Z,3.6
2018-06-18T22:22:50.367Z,4.17
2018-06-18T22:22:50.516Z,4.46
2018-06-18T22:22:50.524Z,4.46
2018-06-18T22:22:50.539Z,4.46
2018-06-18T22:28:45.384Z,4.47
2018-06-18T22:34:40.370Z,4.1
2018-06-18T22:40:35.371Z,4.48
2018-06-18T22:46:30.385Z,4.01
2018-06-18T22:52:25.428Z,4.75
2018-06-18T22:58:20.424Z,4.33
2018-06-18T23:04:15.467Z,4.08
2018-06-18T23:10:10.413Z,4.28
2018-06-18T23:16:05.441Z,4.3
2018-06-18T23:22:00.372Z,4.17
2018-06-18T23:27:55.396Z,4.4
2018-06-18T23:33:50.456Z,4.41
2018-06-18T23:39:45.426Z,4.75
2018-06-18T23:45:40.498Z,4.49
2018-06-18T23:51:35.382Z,4.54
2018-06-18T23:57:30.391Z,4.48
